Time;durP1;ratioP1;P1;durP2;ratioP2;P2;SDS_P1;SDS_P2;PMS_P1;PMS_P2;Temp;Humidity;BMP_temperature;BMP_pressure;BME280_temperature;BME280_humidity;BME280_pressure;Samples;Min_cycle;Max_cycle;Signal;HPM_P1;HPM_P2
2021/07/18 00:01:45;;;;;;;8.30;2.40;;;20.20;99.90;;;;;;5069622;28;20183;-83
2021/07/18 00:04:11;;;;;;;4.80;2.40;;;20.20;99.90;;;;;;5062962;28;20208;-84
2021/07/18 00:06:37;;;;;;;3.80;2.60;;;20.10;99.90;;;;;;5064244;28;20739;-84
2021/07/18 00:09:04;;;;;;;5.30;2.97;;;20.10;99.90;;;;;;5064443;28;20231;-84
2021/07/18 00:11:29;;;;;;;3.37;2.20;;;20.10;99.90;;;;;;5060538;28;20200;-84
2021/07/18 00:13:55;;;;;;;2.50;1.90;;;20.00;99.90;;;;;;5042594;28;20410;-84
2021/07/18 00:16:22;;;;;;;4.10;2.30;;;20.00;99.90;;;;;;5042499;28;20187;-84
2021/07/18 00:18:47;;;;;;;4.50;2.30;;;20.00;99.90;;;;;;5043398;28;20234;-83
2021/07/18 00:21:13;;;;;;;4.13;2.90;;;20.00;99.90;;;;;;5060284;28;20414;-84
2021/07/18 00:23:39;;;;;;;5.27;2.73;;;19.90;99.90;;;;;;5059911;28;20196;-84
2021/07/18 00:26:05;;;;;;;3.43;2.53;;;19.90;99.90;;;;;;5043477;28;20278;-82
2021/07/18 00:28:31;;;;;;;5.03;3.17;;;19.80;99.90;;;;;;5060344;28;20433;-82
2021/07/18 00:30:58;;;;;;;3.10;2.40;;;19.80;99.90;;;;;;5060293;28;20188;-83
2021/07/18 00:33:25;;;;;;;3.60;2.30;;;19.80;99.90;;;;;;5060083;28;20662;-83
2021/07/18 00:35:50;;;;;;;2.90;2.33;;;19.80;99.90;;;;;;5061478;28;20470;-83
2021/07/18 00:38:16;;;;;;;4.27;2.60;;;19.80;99.90;;;;;;5061210;28;20520;-84
2021/07/18 00:40:41;;;;;;;4.83;2.77;;;19.80;99.90;;;;;;5045317;28;20268;-84
2021/07/18 00:43:08;;;;;;;2.00;1.90;;;19.70;99.90;;;;;;5062688;28;20298;-84
2021/07/18 00:45:33;;;;;;;2.53;1.90;;;19.70;99.90;;;;;;5063041;28;20252;-84
2021/07/18 00:47:59;;;;;;;4.10;2.63;;;19.80;99.90;;;;;;5044557;28;20892;-83
2021/07/18 00:50:25;;;;;;;5.50;2.23;;;19.70;99.90;;;;;;5063232;28;20152;-84
2021/07/18 00:52:51;;;;;;;3.77;1.90;;;19.60;99.90;;;;;;5061111;28;20410;-83
2021/07/18 00:55:17;;;;;;;3.73;2.00;;;19.60;99.90;;;;;;5062755;28;20164;-84
2021/07/18 00:57:45;;;;;;;5.47;2.17;;;19.60;99.90;;;;;;5061278;28;20399;-84
2021/07/18 01:00:12;;;;;;;6.10;3.00;;;19.60;99.90;;;;;;5062856;28;20186;-84
2021/07/18 01:02:40;;;;;;;6.67;2.97;;;19.60;99.90;;;;;;5062579;28;20485;-83
2021/07/18 01:05:08;;;;;;;3.10;2.10;;;19.50;99.90;;;;;;5045064;28;20477;-83
2021/07/18 01:07:34;;;;;;;3.23;2.07;;;19.50;99.90;;;;;;5059994;28;20402;-83
2021/07/18 01:10:01;;;;;;;2.00;1.90;;;19.50;99.90;;;;;;5062690;28;20383;-83
2021/07/18 01:12:27;;;;;;;5.53;2.73;;;19.50;99.90;;;;;;5042397;28;20429;-84
2021/07/18 01:14:52;;;;;;;3.60;2.10;;;19.50;99.90;;;;;;5060693;28;20391;-83
2021/07/18 01:17:20;;;;;;;3.70;2.30;;;19.50;99.90;;;;;;5042044;28;20398;-83
2021/07/18 01:19:45;;;;;;;4.67;2.30;;;19.40;99.90;;;;;;5058093;28;20179;-84
2021/07/18 01:22:11;;;;;;;13.50;3.27;;;19.40;99.90;;;;;;5059124;28;20387;-82
2021/07/18 01:24:36;;;;;;;4.00;2.47;;;19.40;99.90;;;;;;5062753;28;20179;-82
2021/07/18 01:27:04;;;;;;;4.37;2.20;;;19.40;99.90;;;;;;5061723;28;20659;-84
2021/07/18 01:29:31;;;;;;;4.37;2.40;;;19.30;99.90;;;;;;5060650;28;20210;-84
2021/07/18 01:31:59;;;;;;;6.80;2.50;;;19.20;99.90;;;;;;5061087;28;20387;-84
2021/07/18 01:34:25;;;;;;;2.70;2.50;;;19.20;99.90;;;;;;5058579;28;20482;-84
2021/07/18 01:36:51;;;;;;;7.30;3.40;;;19.20;99.90;;;;;;5058982;28;20742;-83
2021/07/18 01:39:17;;;;;;;5.53;2.37;;;19.30;99.90;;;;;;5059742;28;20526;-84
2021/07/18 01:41:43;;;;;;;6.00;2.70;;;19.20;99.90;;;;;;5059077;28;20481;-83
2021/07/18 01:44:09;;;;;;;7.53;2.43;;;19.20;99.90;;;;;;5057388;28;20481;-83
2021/07/18 01:46:35;;;;;;;3.63;2.60;;;19.10;99.90;;;;;;5058382;28;20182;-83
2021/07/18 01:49:05;;;;;;;4.50;2.07;;;19.00;99.90;;;;;;5057401;28;20494;-83
2021/07/18 01:51:31;;;;;;;3.63;2.73;;;19.10;99.90;;;;;;5057919;28;20391;-84
2021/07/18 01:53:58;;;;;;;2.97;2.43;;;19.00;99.90;;;;;;5060787;28;20420;-83
2021/07/18 01:56:25;;;;;;;2.73;2.40;;;18.90;99.90;;;;;;5062888;28;20674;-83
2021/07/18 01:58:52;;;;;;;4.17;2.63;;;18.80;99.90;;;;;;5062957;28;20402;-83
2021/07/18 02:01:24;;;;;;;5.07;3.60;;;18.80;99.90;;;;;;5062124;28;20771;-84
2021/07/18 02:03:49;;;;;;;3.57;2.30;;;18.80;99.90;;;;;;5060095;28;20472;-83
2021/07/18 02:06:15;;;;;;;2.77;2.57;;;18.80;99.90;;;;;;5060975;28;20398;-83
2021/07/18 02:08:41;;;;;;;3.83;2.90;;;18.80;99.90;;;;;;5062320;28;20187;-83
2021/07/18 02:11:06;;;;;;;3.37;2.17;;;18.80;99.90;;;;;;5061415;28;20497;-83
2021/07/18 02:13:32;;;;;;;2.70;2.37;;;18.70;99.90;;;;;;5061039;28;20524;-84
2021/07/18 02:15:59;;;;;;;5.03;2.13;;;18.70;99.90;;;;;;5061543;28;20321;-83
2021/07/18 02:18:25;;;;;;;2.53;2.33;;;18.70;99.90;;;;;;5061757;28;20163;-84
2021/07/18 02:20:52;;;;;;;2.40;1.87;;;18.60;99.90;;;;;;5060879;28;20395;-83
2021/07/18 02:23:18;;;;;;;19.83;3.13;;;18.60;99.90;;;;;;5062492;28;20450;-83
2021/07/18 02:25:43;;;;;;;4.50;3.17;;;18.60;99.90;;;;;;5060056;28;20402;-83
2021/07/18 02:28:09;;;;;;;4.07;2.13;;;18.60;99.90;;;;;;5060369;28;20559;-82
2021/07/18 02:30:34;;;;;;;3.87;2.10;;;18.60;99.90;;;;;;5058326;28;20168;-82
2021/07/18 02:33:00;;;;;;;2.20;2.00;;;18.60;99.90;;;;;;5060676;28;20168;-82
2021/07/18 02:35:26;;;;;;;3.00;2.63;;;18.60;99.90;;;;;;5060212;28;20160;-83
2021/07/18 02:37:52;;;;;;;4.07;2.13;;;18.50;99.90;;;;;;5059870;28;20573;-83
2021/07/18 02:40:19;;;;;;;5.33;2.70;;;18.50;99.90;;;;;;5060138;28;20172;-82
2021/07/18 02:42:44;;;;;;;2.90;2.40;;;18.50;99.90;;;;;;5059857;28;20442;-83
2021/07/18 02:45:12;;;;;;;2.23;2.13;;;18.50;99.90;;;;;;5059769;28;20811;-84
2021/07/18 02:47:38;;;;;;;2.43;2.23;;;18.40;99.90;;;;;;5060272;28;20172;-83
2021/07/18 02:50:05;;;;;;;6.77;4.27;;;18.50;99.90;;;;;;5060563;28;20486;-83
2021/07/18 02:52:31;;;;;;;3.63;2.90;;;18.50;99.90;;;;;;5059581;28;20525;-83
2021/07/18 02:54:56;;;;;;;7.93;2.53;;;18.40;99.90;;;;;;5059811;28;20398;-83
2021/07/18 02:57:22;;;;;;;4.80;3.00;;;18.40;99.90;;;;;;5060243;28;20263;-83
2021/07/18 02:59:47;;;;;;;3.53;2.10;;;18.40;99.90;;;;;;5060532;28;20168;-82
2021/07/18 03:02:13;;;;;;;4.07;1.80;;;18.40;99.90;;;;;;5060269;28;20168;-84
2021/07/18 03:04:38;;;;;;;5.63;2.60;;;18.40;99.90;;;;;;5060074;28;20160;-83
2021/07/18 03:07:04;;;;;;;5.40;3.83;;;18.40;99.90;;;;;;5059398;28;20160;-83
2021/07/18 03:09:29;;;;;;;3.90;2.70;;;18.30;99.90;;;;;;5060487;28;20192;-84
2021/07/18 03:11:55;;;;;;;5.47;2.87;;;18.30;99.90;;;;;;5059673;28;20262;-84
2021/07/18 03:14:20;;;;;;;6.10;2.47;;;18.20;99.90;;;;;;5061833;28;20197;-84
2021/07/18 03:16:47;;;;;;;3.30;2.97;;;18.20;99.90;;;;;;5060949;28;20505;-83
2021/07/18 03:19:13;;;;;;;2.50;2.17;;;18.00;99.90;;;;;;5062095;28;20483;-83
2021/07/18 03:21:39;;;;;;;2.03;1.90;;;17.60;99.90;;;;;;5061923;28;20402;-83
2021/07/18 03:24:05;;;;;;;2.00;1.80;;;17.70;99.90;;;;;;5062605;28;20230;-83
2021/07/18 03:26:31;;;;;;;2.57;2.37;;;17.60;99.90;;;;;;5062818;28;20179;-83
2021/07/18 03:28:56;;;;;;;2.60;2.40;;;17.40;99.90;;;;;;5061656;28;20549;-82
2021/07/18 03:31:22;;;;;;;2.23;2.07;;;17.50;99.90;;;;;;5062031;28;20429;-83
2021/07/18 03:33:48;;;;;;;2.97;1.90;;;17.30;99.90;;;;;;5062436;28;20210;-83
2021/07/18 03:36:14;;;;;;;4.73;2.50;;;17.60;99.90;;;;;;5061903;28;20183;-83
2021/07/18 03:38:40;;;;;;;4.97;2.77;;;17.70;99.90;;;;;;5061410;28;20228;-82
2021/07/18 03:41:05;;;;;;;6.40;2.57;;;17.80;99.90;;;;;;5061892;28;20395;-83
2021/07/18 03:43:31;;;;;;;4.93;2.50;;;17.80;99.90;;;;;;5061620;28;20253;-84
2021/07/18 03:45:56;;;;;;;5.50;3.10;;;17.80;99.90;;;;;;5063106;28;20164;-84
2021/07/18 03:48:22;;;;;;;3.90;3.40;;;17.80;99.90;;;;;;5062120;28;20214;-83
2021/07/18 03:50:48;;;;;;;24.63;3.10;;;17.90;99.90;;;;;;5062573;28;20256;-83
2021/07/18 03:53:15;;;;;;;2.33;2.13;;;17.90;99.90;;;;;;5060302;28;20207;-83
2021/07/18 03:55:40;;;;;;;2.30;2.10;;;17.90;99.90;;;;;;5063024;28;20403;-84
2021/07/18 03:58:06;;;;;;;3.57;3.27;;;18.00;99.90;;;;;;5062625;28;20394;-83
2021/07/18 04:00:32;;;;;;;3.00;2.60;;;18.00;99.90;;;;;;5062885;28;20168;-84
2021/07/18 04:02:57;;;;;;;3.03;2.30;;;18.00;99.90;;;;;;5063444;28;20306;-83
2021/07/18 04:05:23;;;;;;;6.30;2.87;;;18.00;99.90;;;;;;5063320;28;20164;-84
2021/07/18 04:07:48;;;;;;;3.30;2.17;;;18.00;99.90;;;;;;5061870;28;20199;-84
2021/07/18 04:10:14;;;;;;;2.90;2.27;;;18.00;99.90;;;;;;5062432;28;20169;-84
2021/07/18 04:12:39;;;;;;;2.90;2.60;;;18.00;99.90;;;;;;5062040;28;20213;-84
2021/07/18 04:15:06;;;;;;;12.77;2.13;;;18.00;99.90;;;;;;5062111;28;20156;-83
2021/07/18 04:17:32;;;;;;;5.07;2.60;;;18.00;99.90;;;;;;5063037;28;20164;-82
2021/07/18 04:19:57;;;;;;;9.63;2.40;;;18.00;99.90;;;;;;5063214;28;20405;-83
2021/07/18 04:22:23;;;;;;;6.30;2.90;;;18.00;99.90;;;;;;5062678;28;20156;-84
2021/07/18 04:24:48;;;;;;;4.13;2.73;;;18.00;99.90;;;;;;5063116;28;20206;-84
2021/07/18 04:27:14;;;;;;;4.13;2.63;;;18.10;99.90;;;;;;5061067;28;20179;-84
2021/07/18 04:29:39;;;;;;;8.57;2.50;;;18.20;99.90;;;;;;5062218;28;20576;-84
2021/07/18 04:32:05;;;;;;;4.17;2.20;;;18.20;99.90;;;;;;5063392;28;20221;-84
2021/07/18 04:34:31;;;;;;;5.40;2.80;;;18.10;99.90;;;;;;5062444;28;20163;-84
2021/07/18 04:36:58;;;;;;;6.63;2.47;;;18.10;99.90;;;;;;5063493;28;20405;-84
2021/07/18 04:39:24;;;;;;;2.30;2.10;;;18.20;99.90;;;;;;5063039;28;20307;-84
2021/07/18 04:41:50;;;;;;;3.90;3.30;;;18.20;99.90;;;;;;5062904;28;20511;-83
2021/07/18 04:44:15;;;;;;;2.70;2.27;;;18.20;99.90;;;;;;5063713;28;20523;-84
2021/07/18 04:46:41;;;;;;;2.40;2.20;;;18.20;99.90;;;;;;5064230;28;20259;-84
2021/07/18 04:49:06;;;;;;;3.23;2.30;;;18.30;99.90;;;;;;5062588;28;20223;-84
2021/07/18 04:51:32;;;;;;;3.13;2.80;;;18.30;99.90;;;;;;5059044;28;20178;-83
2021/07/18 04:53:57;;;;;;;2.47;2.20;;;18.30;99.90;;;;;;5059750;28;20201;-83
2021/07/18 04:56:23;;;;;;;2.40;2.20;;;18.30;99.90;;;;;;5058409;28;20195;-83
2021/07/18 04:58:48;;;;;;;2.57;2.37;;;18.40;99.90;;;;;;5060777;28;20164;-84
2021/07/18 05:01:14;;;;;;;4.30;2.50;;;18.40;99.90;;;;;;5059643;28;20191;-85
2021/07/18 05:03:39;;;;;;;6.00;3.00;;;18.40;99.90;;;;;;5062056;28;20274;-84
2021/07/18 05:06:05;;;;;;;2.27;1.90;;;18.40;99.90;;;;;;5062947;28;20519;-84
2021/07/18 05:08:33;;;;;;;4.57;3.00;;;18.40;99.90;;;;;;5063432;28;20191;-84
2021/07/18 05:11:00;;;;;;;2.70;2.50;;;18.40;99.90;;;;;;5060232;28;20502;-84
2021/07/18 05:13:28;;;;;;;2.40;2.20;;;18.40;99.90;;;;;;5061388;28;20454;-84
2021/07/18 05:15:53;;;;;;;2.33;2.10;;;18.50;99.90;;;;;;5062684;28;20462;-84
2021/07/18 05:18:19;;;;;;;2.80;2.03;;;18.50;99.90;;;;;;5062828;28;20170;-84
2021/07/18 05:20:44;;;;;;;3.20;2.20;;;18.50;99.90;;;;;;5068102;28;20250;-84
2021/07/18 05:23:11;;;;;;;3.40;2.40;;;18.50;99.90;;;;;;5058492;28;20199;-84
2021/07/18 05:25:37;;;;;;;2.10;2.00;;;18.50;99.90;;;;;;5060334;28;20180;-84
2021/07/18 05:28:04;;;;;;;8.73;2.70;;;18.60;99.90;;;;;;5061363;28;20394;-84
2021/07/18 05:30:30;;;;;;;4.27;2.40;;;18.60;99.90;;;;;;5064567;28;20398;-83
2021/07/18 05:32:56;;;;;;;3.10;2.40;;;18.70;99.90;;;;;;5064565;28;20398;-84
2021/07/18 05:35:22;;;;;;;3.40;3.10;;;18.70;99.90;;;;;;5066769;28;20485;-84
2021/07/18 05:37:48;;;;;;;4.60;2.70;;;18.70;99.90;;;;;;5066001;28;20391;-84
2021/07/18 05:40:13;;;;;;;4.40;2.40;;;18.70;99.90;;;;;;5063615;28;20245;-84
2021/07/18 05:42:39;;;;;;;5.93;2.30;;;18.80;99.90;;;;;;5065224;28;20223;-84
2021/07/18 05:45:06;;;;;;;3.30;3.00;;;18.90;99.90;;;;;;5063245;28;20616;-84
2021/07/18 05:47:34;;;;;;;2.10;1.90;;;18.90;99.90;;;;;;5065234;28;20164;-84
2021/07/18 05:50:01;;;;;;;5.80;5.20;;;19.00;99.90;;;;;;5065995;28;20390;-84
2021/07/18 05:52:26;;;;;;;3.37;3.00;;;19.00;99.90;;;;;;5071332;28;20379;-85
2021/07/18 05:54:52;;;;;;;3.50;3.07;;;19.10;99.90;;;;;;5075068;28;20406;-83
2021/07/18 05:57:18;;;;;;;4.77;2.80;;;19.10;99.90;;;;;;5070785;28;20207;-84
2021/07/18 05:59:45;;;;;;;3.93;2.37;;;19.20;99.90;;;;;;5069331;28;20394;-84
2021/07/18 06:02:11;;;;;;;4.60;2.93;;;19.20;99.90;;;;;;5066157;28;20395;-83
2021/07/18 06:04:36;;;;;;;9.20;2.57;;;19.20;99.90;;;;;;5064995;28;20409;-84
2021/07/18 06:07:02;;;;;;;4.13;3.07;;;19.30;99.90;;;;;;5066103;28;20160;-84
2021/07/18 06:09:27;;;;;;;3.60;2.87;;;19.40;99.90;;;;;;5066758;28;20196;-84
2021/07/18 06:11:53;;;;;;;3.07;2.50;;;19.40;99.90;;;;;;5066664;28;20163;-83
2021/07/18 06:14:19;;;;;;;5.50;2.80;;;19.40;99.90;;;;;;5065464;28;20156;-84
2021/07/18 06:16:44;;;;;;;4.60;3.20;;;19.50;99.90;;;;;;5067451;28;20160;-84
2021/07/18 06:19:09;;;;;;;3.00;2.40;;;19.50;99.90;;;;;;5066194;28;20601;-84
2021/07/18 06:21:35;;;;;;;4.00;3.47;;;19.50;99.90;;;;;;5065986;28;20205;-84
2021/07/18 06:24:01;;;;;;;2.43;2.23;;;19.60;99.90;;;;;;5074149;28;20203;-83
2021/07/18 06:26:26;;;;;;;4.77;3.07;;;19.60;99.90;;;;;;5080591;28;20171;-83
2021/07/18 06:28:52;;;;;;;3.23;2.83;;;19.60;99.90;;;;;;5080653;28;20228;-81
2021/07/18 06:31:17;;;;;;;3.13;2.87;;;19.60;99.90;;;;;;5074763;28;20183;-83
2021/07/18 06:33:44;;;;;;;5.47;4.10;;;19.70;99.90;;;;;;5068134;28;20235;-83
2021/07/18 06:36:10;;;;;;;4.57;3.40;;;19.70;99.90;;;;;;5062779;28;20168;-82
2021/07/18 06:38:36;;;;;;;4.13;2.93;;;19.70;99.90;;;;;;5061078;28;20473;-83
2021/07/18 06:41:02;;;;;;;2.47;2.27;;;19.80;99.90;;;;;;5061243;28;20191;-83
2021/07/18 06:43:28;;;;;;;7.93;3.00;;;19.80;99.90;;;;;;5061479;28;20567;-83
2021/07/18 06:45:54;;;;;;;6.00;3.60;;;19.80;99.90;;;;;;5065554;28;20395;-83
2021/07/18 06:48:19;;;;;;;4.93;2.93;;;19.90;99.90;;;;;;5063457;28;20160;-83
2021/07/18 06:50:45;;;;;;;3.93;2.80;;;20.00;99.90;;;;;;5062516;28;20160;-83
2021/07/18 06:53:10;;;;;;;6.17;3.70;;;20.00;99.90;;;;;;5063363;28;20165;-83
2021/07/18 06:55:36;;;;;;;6.83;3.33;;;20.00;99.90;;;;;;5064983;28;20555;-83
2021/07/18 06:58:02;;;;;;;4.90;3.00;;;20.10;99.90;;;;;;5063328;28;20164;-83
2021/07/18 07:00:30;;;;;;;3.00;2.80;;;20.10;99.90;;;;;;5063518;28;20187;-83
2021/07/18 07:02:55;;;;;;;4.10;3.77;;;20.20;99.90;;;;;;5064114;28;20434;-83
2021/07/18 07:05:21;;;;;;;3.95;3.50;;;20.20;99.90;;;;;;5064980;28;20412;-83
2021/07/18 07:07:47;;;;;;;3.73;3.07;;;20.10;99.90;;;;;;5069458;28;20211;-82
2021/07/18 07:10:14;;;;;;;3.47;3.20;;;20.00;99.90;;;;;;5067252;28;20171;-82
2021/07/18 07:12:41;;;;;;;8.40;3.70;;;20.10;99.90;;;;;;5067112;28;20256;-83
2021/07/18 07:15:06;;;;;;;6.10;3.60;;;20.30;99.90;;;;;;5061738;28;20390;-83
2021/07/18 07:17:32;;;;;;;4.80;3.70;;;20.30;99.90;;;;;;5061579;28;20413;-81
2021/07/18 07:19:58;;;;;;;4.97;4.30;;;20.30;99.90;;;;;;5061173;28;20202;-83
2021/07/18 07:22:23;;;;;;;5.03;4.40;;;20.40;99.90;;;;;;5061761;28;20231;-82
2021/07/18 07:24:49;;;;;;;6.40;3.43;;;20.40;99.90;;;;;;5061771;28;20152;-83
2021/07/18 07:27:16;;;;;;;7.13;3.17;;;20.40;99.90;;;;;;5060708;28;20180;-82
2021/07/18 07:29:41;;;;;;;5.53;3.63;;;20.50;99.90;;;;;;5060285;28;20164;-82
2021/07/18 07:32:07;;;;;;;6.40;3.97;;;20.60;99.90;;;;;;5060704;28;20422;-81
2021/07/18 07:34:33;;;;;;;5.73;3.70;;;20.60;99.90;;;;;;5060127;28;20231;-83
2021/07/18 07:36:59;;;;;;;4.00;3.37;;;20.70;99.90;;;;;;5059527;28;20910;-82
2021/07/18 07:39:25;;;;;;;3.47;3.07;;;20.70;99.90;;;;;;5059130;28;20469;-83
2021/07/18 07:41:50;;;;;;;3.13;2.93;;;20.70;99.90;;;;;;5061078;28;20187;-82
2021/07/18 07:44:16;;;;;;;8.87;4.13;;;20.80;99.90;;;;;;5058409;28;20521;-82
2021/07/18 07:46:43;;;;;;;5.47;3.70;;;20.80;99.90;;;;;;5057711;28;20199;-82
2021/07/18 07:49:08;;;;;;;4.37;2.87;;;20.90;99.90;;;;;;5059552;28;20393;-83
2021/07/18 07:51:34;;;;;;;5.67;3.40;;;21.00;99.90;;;;;;5058628;28;20602;-83
2021/07/18 07:53:59;;;;;;;5.30;3.90;;;21.00;99.90;;;;;;5059290;28;20164;-84
2021/07/18 07:56:25;;;;;;;4.33;3.80;;;21.10;99.90;;;;;;5059267;28;20191;-83
2021/07/18 07:58:51;;;;;;;5.40;4.00;;;21.10;99.90;;;;;;5058819;28;20199;-82
2021/07/18 08:01:16;;;;;;;9.77;3.77;;;21.20;99.90;;;;;;5057437;28;20343;-82
2021/07/18 08:03:41;;;;;;;6.17;4.13;;;21.20;99.90;;;;;;5059379;28;20550;-83
2021/07/18 08:06:07;;;;;;;4.10;3.80;;;21.30;99.90;;;;;;5059708;28;20168;-83
2021/07/18 08:08:33;;;;;;;4.00;3.53;;;21.40;99.90;;;;;;5060261;28;20187;-84
2021/07/18 08:10:59;;;;;;;7.03;3.93;;;21.50;99.90;;;;;;5060344;28;20164;-82
2021/07/18 08:13:25;;;;;;;5.83;4.13;;;21.30;99.90;;;;;;5057801;28;20160;-84
2021/07/18 08:15:50;;;;;;;10.53;4.67;;;21.40;99.90;;;;;;5041798;28;20409;-83
2021/07/18 08:18:16;;;;;;;7.00;4.67;;;21.40;99.90;;;;;;5059408;28;20394;-83
2021/07/18 08:20:41;;;;;;;9.17;3.80;;;21.60;99.90;;;;;;5059774;28;20164;-83
2021/07/18 08:23:07;;;;;;;3.87;3.57;;;21.60;99.90;;;;;;5060062;28;20195;-84
2021/07/18 08:25:33;;;;;;;5.10;4.33;;;21.40;99.90;;;;;;5041172;28;20186;-83
2021/07/18 08:27:58;;;;;;;3.70;3.40;;;21.60;99.90;;;;;;5059024;28;20166;-84
2021/07/18 08:30:24;;;;;;;3.87;3.50;;;21.80;99.90;;;;;;5058444;28;20433;-83
2021/07/18 08:32:51;;;;;;;6.40;3.43;;;21.90;99.90;;;;;;5059279;28;20172;-83
2021/07/18 08:35:17;;;;;;;7.70;4.87;;;22.00;99.90;;;;;;5059407;28;20183;-84
2021/07/18 08:37:43;;;;;;;6.10;4.10;;;22.00;99.90;;;;;;5058048;28;20910;-83
2021/07/18 08:40:10;;;;;;;3.83;3.40;;;22.20;99.90;;;;;;5060333;28;20556;-81
2021/07/18 08:42:36;;;;;;;4.23;3.67;;;22.30;99.90;;;;;;5058383;28;20242;-82
2021/07/18 08:45:03;;;;;;;3.90;3.50;;;22.40;99.90;;;;;;5059534;28;20387;-83
2021/07/18 08:47:29;;;;;;;4.27;3.77;;;22.30;99.90;;;;;;5059859;28;20202;-83
2021/07/18 08:49:55;;;;;;;5.65;3.95;;;22.00;99.90;;;;;;5060538;28;20484;-84
2021/07/18 08:52:22;;;;;;;4.47;4.03;;;22.10;99.90;;;;;;5060565;28;20172;-84
2021/07/18 08:54:50;;;;;;;4.37;3.17;;;22.40;99.90;;;;;;5059150;28;20163;-84
2021/07/18 08:57:21;;;;;;;3.97;3.57;;;22.50;99.90;;;;;;5058672;28;20450;-83
2021/07/18 08:59:48;;;;;;;7.63;3.60;;;22.50;99.90;;;;;;5058049;28;20401;-84
2021/07/18 09:02:14;;;;;;;4.53;4.13;;;22.20;99.90;;;;;;5042824;28;20537;-83
2021/07/18 09:04:40;;;;;;;8.60;3.50;;;22.50;99.90;;;;;;5063951;28;20883;-84
2021/07/18 09:07:08;;;;;;;4.30;3.60;;;22.70;99.90;;;;;;5063631;28;20387;-83
2021/07/18 09:09:34;;;;;;;4.63;3.27;;;22.80;99.90;;;;;;5063196;28;20195;-84
2021/07/18 09:12:05;;;;;;;5.00;3.93;;;22.50;99.90;;;;;;5063106;28;20450;-84
2021/07/18 09:14:40;;;;;;;4.10;3.60;;;22.70;99.90;;;;;;5045869;28;20394;-84
2021/07/18 09:17:10;;;;;;;5.93;3.50;;;22.90;99.90;;;;;;5063343;28;20529;-84
2021/07/18 09:19:38;;;;;;;5.83;3.37;;;23.10;99.90;;;;;;5063345;28;20566;-84
2021/07/18 09:22:19;;;;;;;7.97;3.77;;;23.20;99.90;;;;;;5063137;28;20405;-82
2021/07/18 09:24:54;;;;;;;6.03;3.70;;;23.30;99.90;;;;;;5063452;28;20394;-84
2021/07/18 09:27:23;;;;;;;3.73;3.43;;;23.30;99.90;;;;;;5063299;28;20386;-84
2021/07/18 09:29:52;;;;;;;4.50;3.70;;;23.00;99.90;;;;;;5064072;28;20387;-84
2021/07/18 09:32:22;;;;;;;3.37;3.10;;;22.90;99.90;;;;;;5062355;28;20377;-83
2021/07/18 09:34:59;;;;;;;3.83;3.23;;;23.30;99.90;;;;;;5062402;28;20426;-83
2021/07/18 09:37:28;;;;;;;4.13;3.73;;;23.60;99.90;;;;;;5062882;28;20390;-83
2021/07/18 09:39:58;;;;;;;3.83;3.53;;;23.60;99.90;;;;;;5063690;28;20454;-84
2021/07/18 09:42:42;;;;;;;4.03;3.63;;;23.50;99.90;;;;;;5062734;28;20387;-83
2021/07/18 09:45:16;;;;;;;5.33;3.53;;;23.80;99.90;;;;;;5062991;28;20412;-83
2021/07/18 09:47:56;;;;;;;4.47;3.93;;;23.90;99.90;;;;;;5063649;28;20739;-83
2021/07/18 09:50:27;;;;;;;4.27;3.90;;;23.70;99.90;;;;;;5061069;28;20394;-84
2021/07/18 09:53:05;;;;;;;7.57;3.00;;;23.80;99.90;;;;;;5061258;28;20485;-83
2021/07/18 09:55:31;;;;;;;4.03;3.37;;;23.80;99.90;;;;;;5062434;28;20402;-84
2021/07/18 09:57:56;;;;;;;7.13;4.27;;;23.50;99.90;;;;;;5062468;28;20505;-82
2021/07/18 10:00:40;;;;;;;7.17;3.37;;;23.70;99.90;;;;;;5043846;28;20202;-84
2021/07/18 10:03:18;;;;;;;6.20;4.03;;;24.20;99.90;;;;;;5028090;28;20234;-84
2021/07/18 10:05:43;;;;;;;9.83;3.73;;;24.30;99.90;;;;;;5061749;28;20453;-83
2021/07/18 10:08:10;;;;;;;4.40;4.10;;;24.30;99.90;;;;;;5060408;28;20418;-84
2021/07/18 10:10:39;;;;;;;4.63;4.10;;;24.50;99.90;;;;;;5062243;28;20160;-84
2021/07/18 10:13:08;;;;;;;7.60;3.80;;;24.50;99.90;;;;;;5060997;28;20391;-84
2021/07/18 10:15:34;;;;;;;4.40;4.00;;;24.70;99.90;;;;;;5060776;28;20391;-84
2021/07/18 10:18:00;;;;;;;3.13;2.90;;;24.50;99.90;;;;;;5062038;28;20452;-84
2021/07/18 10:20:26;;;;;;;7.67;3.70;;;24.50;99.90;;;;;;5044311;28;20156;-83
2021/07/18 10:22:53;;;;;;;6.77;3.93;;;24.80;99.90;;;;;;5062134;28;20216;-83
2021/07/18 10:25:20;;;;;;;5.07;3.87;;;25.00;99.90;;;;;;5061741;28;20387;-84
2021/07/18 10:27:47;;;;;;;5.47;3.37;;;24.80;99.90;;;;;;5062337;28;20391;-83
2021/07/18 10:30:17;;;;;;;3.73;3.37;;;25.10;99.90;;;;;;5047506;28;20463;-84
2021/07/18 10:32:46;;;;;;;4.07;3.67;;;24.90;99.90;;;;;;5062893;28;20487;-84
2021/07/18 10:35:12;;;;;;;5.77;4.13;;;25.00;99.90;;;;;;5062920;28;20518;-82
2021/07/18 10:37:40;;;;;;;4.77;3.87;;;25.20;99.90;;;;;;5061962;28;20406;-82
2021/07/18 10:40:12;;;;;;;4.10;3.73;;;25.50;99.90;;;;;;5061381;28;20461;-84
2021/07/18 10:42:37;;;;;;;6.47;4.77;;;25.70;99.90;;;;;;5064212;28;20548;-84
2021/07/18 10:45:25;;;;;;;3.77;3.47;;;25.80;99.90;;;;;;5064504;28;20394;-83
2021/07/18 10:48:05;;;;;;;5.27;4.60;;;25.80;99.90;;;;;;5064092;28;20232;-84
2021/07/18 10:50:49;;;;;;;4.97;4.47;;;25.90;99.90;;;;;;5066475;28;20402;-84
2021/07/18 10:53:22;;;;;;;7.13;4.40;;;25.30;99.90;;;;;;5063159;28;20416;-84
2021/07/18 10:55:49;;;;;;;4.37;3.97;;;25.30;99.90;;;;;;5061600;28;20438;-84
2021/07/18 10:58:42;;;;;;;4.47;4.03;;;25.80;99.90;;;;;;5061940;28;20411;-83
2021/07/18 11:01:29;;;;;;;8.03;5.27;;;26.00;99.90;;;;;;5062447;28;20422;-84
2021/07/18 11:03:54;;;;;;;5.53;3.90;;;25.90;99.90;;;;;;5047753;28;20973;-83
2021/07/18 11:06:26;;;;;;;8.20;4.00;;;26.10;99.90;;;;;;5062734;28;20418;-83
2021/07/18 11:09:11;;;;;;;7.63;4.47;;;26.20;99.90;;;;;;5062721;28;20188;-84
2021/07/18 11:11:43;;;;;;;4.43;3.97;;;26.20;99.90;;;;;;5063525;28;20395;-83
2021/07/18 11:14:25;;;;;;;5.63;3.47;;;26.20;99.90;;;;;;5064351;28;20394;-83
2021/07/18 11:16:54;;;;;;;6.00;4.17;;;26.50;99.90;;;;;;5067588;28;20395;-84
2021/07/18 11:19:52;;;;;;;4.60;3.60;;;26.70;99.90;;;;;;5072776;28;20410;-84
2021/07/18 11:22:18;;;;;;;6.50;5.30;;;26.60;99.90;;;;;;5071620;28;20408;-84
2021/07/18 11:24:54;;;;;;;5.80;4.40;;;26.40;99.90;;;;;;5068791;28;20462;-84
2021/07/18 11:27:25;;;;;;;10.60;5.90;;;26.50;99.90;;;;;;5062974;28;20564;-84
2021/07/18 11:29:52;;;;;;;8.87;4.77;;;27.00;99.90;;;;;;5065527;28;20452;-84
2021/07/18 11:32:19;;;;;;;4.30;3.53;;;26.90;99.90;;;;;;5063939;28;20379;-84
2021/07/18 11:34:46;;;;;;;6.50;5.23;;;26.50;99.90;;;;;;5064556;28;20851;-83
2021/07/18 11:37:14;;;;;;;7.60;5.67;;;26.90;99.90;;;;;;5065374;28;20860;-85
2021/07/18 11:39:42;;;;;;;7.30;5.50;;;26.70;99.90;;;;;;5063851;28;20512;-84
2021/07/18 11:42:09;;;;;;;4.60;4.20;;;26.70;99.90;;;;;;5046860;28;20392;-81
2021/07/18 11:44:36;;;;;;;6.00;4.37;;;27.20;99.90;;;;;;5046617;28;20446;-83
2021/07/18 11:47:04;;;;;;;4.90;4.20;;;27.10;99.90;;;;;;5062897;28;20390;-83
2021/07/18 11:49:33;;;;;;;7.90;5.10;;;27.30;99.90;;;;;;5063279;28;20445;-84
2021/07/18 11:52:00;;;;;;;5.10;4.27;;;27.00;99.90;;;;;;5064482;28;20474;-83
2021/07/18 11:54:27;;;;;;;4.50;4.10;;;27.20;99.90;;;;;;5064166;28;20398;-83
2021/07/18 11:56:55;;;;;;;5.80;4.77;;;27.80;99.90;;;;;;5028447;28;20410;-84
2021/07/18 11:59:23;;;;;;;4.90;4.03;;;28.20;99.90;;;;;;5063247;28;20409;-83
2021/07/18 12:01:52;;;;;;;4.63;3.87;;;28.60;99.90;;;;;;5063477;28;20413;-84
2021/07/18 12:04:23;;;;;;;7.63;4.47;;;28.80;99.90;;;;;;5044021;28;20441;-84
2021/07/18 12:06:53;;;;;;;4.57;4.17;;;29.00;99.90;;;;;;5063517;28;20390;-84
2021/07/18 12:09:23;;;;;;;4.50;4.10;;;29.10;99.90;;;;;;5063334;28;20417;-84
2021/07/18 12:11:51;;;;;;;6.07;4.40;;;29.20;99.90;;;;;;5063118;28;20462;-84
2021/07/18 12:14:17;;;;;;;5.03;4.30;;;29.50;99.90;;;;;;5062272;28;20386;-84
2021/07/18 12:16:45;;;;;;;7.40;5.13;;;29.50;99.90;;;;;;5065402;28;20461;-84
2021/07/18 12:19:12;;;;;;;6.53;5.20;;;28.70;99.90;;;;;;5062264;28;20180;-84
2021/07/18 12:21:44;;;;;;;5.40;4.88;;;29.10;99.90;;;;;;5062189;28;20174;-84
2021/07/18 12:24:42;;;;;;;4.72;4.32;;;29.50;99.90;;;;;;5063858;28;20555;-83
2021/07/18 12:27:12;;;;;;;4.78;4.38;;;29.90;99.90;;;;;;5064471;28;20178;-84
2021/07/18 12:29:47;;;;;;;4.60;4.20;;;29.60;99.90;;;;;;5064030;28;20168;-84
2021/07/18 12:32:15;;;;;;;5.28;4.78;;;30.40;99.90;;;;;;5065883;28;20205;-84
2021/07/18 12:34:49;;;;;;;4.45;4.05;;;29.20;99.90;;;;;;5063564;28;20169;-83
2021/07/18 12:37:26;;;;;;;5.22;4.65;;;29.40;99.90;;;;;;5046985;28;20162;-84
2021/07/18 12:39:56;;;;;;;4.78;4.28;;;28.70;99.90;;;;;;5030282;28;20280;-84
2021/07/18 12:42:34;;;;;;;4.00;3.65;;;30.20;99.90;;;;;;5063519;28;20179;-84
2021/07/18 12:45:11;;;;;;;5.53;4.13;;;30.70;99.90;;;;;;5065000;28;20616;-84
2021/07/18 12:47:52;;;;;;;12.00;4.78;;;30.50;99.90;;;;;;5063451;28;20183;-85